createdAt,value
2023-01-13T00:04:58.251Z,10.57
2023-01-13T00:10:20.871Z,11.45
2023-01-13T00:15:39.606Z,10.88
2023-01-13T00:21:16.513Z,12.23
2023-01-13T00:26:37.307Z,9.52
2023-01-13T00:31:50.755Z,10.00
2023-01-13T00:37:18.306Z,10.00
2023-01-13T00:42:37.549Z,11.07
2023-01-13T00:53:47.445Z,12.85
2023-01-13T00:58:52.665Z,9.88
2023-01-13T01:03:58.127Z,10.05
2023-01-13T01:09:06.260Z,9.65
2023-01-13T01:14:13.360Z,8.50
2023-01-13T01:19:18.924Z,9.02
2023-01-13T01:24:26.690Z,9.77
2023-01-13T01:29:31.832Z,9.52
2023-01-13T01:34:39.389Z,10.85
2023-01-13T01:39:47.171Z,10.10
2023-01-13T01:45:02.024Z,9.23
2023-01-13T01:50:07.705Z,10.98
2023-01-13T01:55:17.735Z,29.02
2023-01-13T02:00:23.371Z,27.55
2023-01-13T02:05:28.952Z,18.23
2023-01-13T02:10:36.764Z,12.75
2023-01-13T02:15:45.580Z,12.43
2023-01-13T02:20:59.841Z,12.05
2023-01-13T02:26:29.930Z,13.45
2023-01-13T02:31:45.211Z,11.63
2023-01-13T02:36:54.496Z,12.07
2023-01-13T02:42:18.022Z,12.27
2023-01-13T02:47:27.962Z,13.35
2023-01-13T02:52:37.507Z,14.88
2023-01-13T02:57:43.467Z,12.82
2023-01-13T03:02:51.690Z,12.02
2023-01-13T03:08:35.734Z,11.02
2023-01-13T03:13:56.214Z,29.63
2023-01-13T03:19:13.465Z,20.10
2023-01-13T03:24:21.523Z,12.35
2023-01-13T03:29:29.945Z,12.40
2023-01-13T03:34:41.344Z,12.02
2023-01-13T03:39:50.485Z,12.73
2023-01-13T03:45:00.485Z,13.82
2023-01-13T03:50:11.011Z,11.90
2023-01-13T03:55:18.980Z,11.55
2023-01-13T04:00:26.707Z,13.93
2023-01-13T04:05:35.743Z,13.15
2023-01-13T04:10:48.019Z,13.93
2023-01-13T04:15:53.536Z,15.10
2023-01-13T04:21:02.364Z,12.85
2023-01-13T04:26:07.644Z,10.82
2023-01-13T04:31:12.891Z,11.73
2023-01-13T04:36:25.426Z,10.18
2023-01-13T04:41:50.947Z,10.80
2023-01-13T04:46:56.451Z,11.55
2023-01-13T04:52:07.344Z,11.60
2023-01-13T04:57:12.662Z,9.95
2023-01-13T05:02:20.214Z,10.55
2023-01-13T05:07:28.288Z,10.13
2023-01-13T05:12:45.985Z,11.75
2023-01-13T05:17:51.529Z,12.38
2023-01-13T05:23:11.719Z,11.85
2023-01-13T05:28:17.143Z,9.93
2023-01-13T05:33:23.446Z,8.68
2023-01-13T05:38:31.255Z,10.60
2023-01-13T05:43:36.522Z,9.32
2023-01-13T05:48:43.368Z,9.45
2023-01-13T05:53:51.457Z,9.68
2023-01-13T05:58:56.837Z,9.23
2023-01-13T06:04:02.029Z,9.40
2023-01-13T06:09:11.221Z,8.93
2023-01-13T06:14:19.451Z,9.60
2023-01-13T06:19:24.637Z,8.75
2023-01-13T06:24:32.479Z,9.68
2023-01-13T06:29:37.621Z,9.13
2023-01-13T06:34:43.767Z,9.25
2023-01-13T06:39:52.339Z,10.10
2023-01-13T06:50:02.923Z,10.27
2023-01-13T06:55:11.471Z,8.75
2023-01-13T07:05:23.536Z,12.40
2023-01-13T07:10:31.364Z,29.13
2023-01-13T07:15:36.993Z,19.02
2023-01-13T07:20:42.192Z,18.27
2023-01-13T07:25:50.651Z,11.30
2023-01-13T07:30:56.131Z,15.68
2023-01-13T07:36:04.611Z,21.55
2023-01-13T07:46:32.428Z,9.02
2023-01-13T07:51:39.391Z,14.35
2023-01-13T07:56:47.194Z,18.40
2023-01-13T08:01:52.455Z,15.57
2023-01-13T08:06:57.799Z,21.92
2023-01-13T08:12:19.957Z,21.90
2023-01-13T08:17:35.959Z,26.38
2023-01-13T08:28:34.329Z,27.55
2023-01-13T09:48:18.801Z,16.02
2023-01-13T12:02:58.114Z,7.03
2023-01-13T12:35:39.681Z,12.57
2023-01-13T12:46:44.309Z,17.13
2023-01-13T13:52:43.998Z,13.77
2023-01-13T13:57:52.217Z,15.02
2023-01-13T14:03:01.394Z,13.43
2023-01-13T14:08:17.106Z,14.25
2023-01-13T14:13:24.690Z,17.92
2023-01-13T14:18:32.065Z,16.77
2023-01-13T14:23:40.680Z,18.67
2023-01-13T14:28:46.679Z,19.92
2023-01-13T14:33:53.788Z,16.42
2023-01-13T14:39:29.220Z,15.77
2023-01-13T14:44:39.421Z,16.58
2023-01-13T14:50:03.900Z,15.32
2023-01-13T14:55:32.132Z,15.82
2023-01-13T15:00:40.598Z,14.20
2023-01-13T15:05:51.256Z,14.20
2023-01-13T15:11:00.723Z,14.25
2023-01-13T15:16:11.204Z,14.73
2023-01-13T15:21:17.371Z,15.90
2023-01-13T15:26:29.986Z,21.15
2023-01-13T15:31:38.577Z,21.90
2023-01-13T15:36:45.176Z,22.73
2023-01-13T15:42:03.428Z,19.55
2023-01-13T16:43:49.057Z,22.50
2023-01-13T17:29:13.933Z,20.67
2023-01-13T17:46:46.181Z,20.15
2023-01-13T17:52:48.443Z,22.15
2023-01-13T18:44:48.097Z,22.23
2023-01-13T19:02:21.127Z,16.60
2023-01-13T19:08:08.975Z,14.90
2023-01-13T19:30:26.643Z,12.98
2023-01-13T19:43:00.012Z,11.00
2023-01-13T20:11:17.520Z,12.43
2023-01-13T21:20:05.016Z,12.32
2023-01-13T21:37:33.238Z,12.82
2023-01-13T21:42:57.561Z,12.52
2023-01-13T21:48:31.360Z,12.85
2023-01-13T22:39:36.732Z,11.18
2023-01-13T22:45:03.387Z,11.15
2023-01-13T22:50:17.170Z,10.45
2023-01-13T22:55:28.326Z,11.02
2023-01-13T23:00:43.711Z,11.20
2023-01-13T23:06:00.004Z,12.50
2023-01-13T23:11:13.390Z,10.55
2023-01-13T23:16:45.684Z,11.75
2023-01-13T23:21:54.715Z,12.38
2023-01-13T23:27:03.508Z,11.73
2023-01-13T23:37:54.767Z,9.27
2023-01-13T23:43:00.475Z,11.65
2023-01-13T23:48:24.503Z,10.38
2023-01-13T23:54:08.954Z,11.23
